sensor_id;sensor_type;location;lat;lon;timestamp;P1;durP1;ratioP1;P2;durP2;ratioP2
63012;SDS011;62113;45.624;11.700;2024-02-04T00:00:26;80.38;;;43.97;;
63012;SDS011;62113;45.624;11.700;2024-02-04T00:02:52;100.28;;;47.10;;
63012;SDS011;62113;45.624;11.700;2024-02-04T00:05:17;128.68;;;59.65;;
63012;SDS011;62113;45.624;11.700;2024-02-04T00:07:43;132.25;;;62.28;;
63012;SDS011;62113;45.624;11.700;2024-02-04T00:10:09;130.77;;;62.92;;
63012;SDS011;62113;45.624;11.700;2024-02-04T00:12:36;139.18;;;66.95;;
63012;SDS011;62113;45.624;11.700;2024-02-04T00:15:01;130.55;;;59.63;;
63012;SDS011;62113;45.624;11.700;2024-02-04T00:17:29;109.07;;;52.28;;
63012;SDS011;62113;45.624;11.700;2024-02-04T00:19:57;98.10;;;46.90;;
63012;SDS011;62113;45.624;11.700;2024-02-04T00:22:27;87.57;;;47.90;;
63012;SDS011;62113;45.624;11.700;2024-02-04T00:24:53;88.18;;;45.35;;
63012;SDS011;62113;45.624;11.700;2024-02-04T00:27:19;88.22;;;45.05;;
63012;SDS011;62113;45.624;11.700;2024-02-04T00:29:45;88.40;;;46.63;;
63012;SDS011;62113;45.624;11.700;2024-02-04T00:32:10;94.22;;;46.92;;
63012;SDS011;62113;45.624;11.700;2024-02-04T00:34:36;86.22;;;46.90;;
63012;SDS011;62113;45.624;11.700;2024-02-04T00:37:02;81.20;;;42.90;;
63012;SDS011;62113;45.624;11.700;2024-02-04T00:39:28;83.10;;;44.85;;
63012;SDS011;62113;45.624;11.700;2024-02-04T00:41:53;80.20;;;43.25;;
63012;SDS011;62113;45.624;11.700;2024-02-04T00:44:19;75.55;;;40.38;;
63012;SDS011;62113;45.624;11.700;2024-02-04T00:46:44;64.38;;;37.83;;
63012;SDS011;62113;45.624;11.700;2024-02-04T00:49:10;80.68;;;42.30;;
63012;SDS011;62113;45.624;11.700;2024-02-04T00:51:36;83.60;;;42.05;;
63012;SDS011;62113;45.624;11.700;2024-02-04T00:54:01;76.22;;;40.67;;
63012;SDS011;62113;45.624;11.700;2024-02-04T00:56:27;78.72;;;42.38;;
63012;SDS011;62113;45.624;11.700;2024-02-04T00:58:53;77.15;;;41.22;;
63012;SDS011;62113;45.624;11.700;2024-02-04T01:01:18;80.43;;;42.40;;
63012;SDS011;62113;45.624;11.700;2024-02-04T01:03:47;79.80;;;41.78;;
63012;SDS011;62113;45.624;11.700;2024-02-04T01:06:13;69.53;;;39.50;;
63012;SDS011;62113;45.624;11.700;2024-02-04T01:08:39;75.78;;;41.55;;
63012;SDS011;62113;45.624;11.700;2024-02-04T01:11:05;79.60;;;41.90;;
63012;SDS011;62113;45.624;11.700;2024-02-04T01:13:30;84.90;;;43.65;;
63012;SDS011;62113;45.624;11.700;2024-02-04T01:15:56;79.20;;;41.55;;
63012;SDS011;62113;45.624;11.700;2024-02-04T01:18:22;79.47;;;43.45;;
63012;SDS011;62113;45.624;11.700;2024-02-04T01:20:47;76.22;;;41.60;;
63012;SDS011;62113;45.624;11.700;2024-02-04T01:23:13;84.10;;;43.17;;
63012;SDS011;62113;45.624;11.700;2024-02-04T01:25:42;82.90;;;42.97;;
63012;SDS011;62113;45.624;11.700;2024-02-04T01:28:08;80.93;;;43.80;;
63012;SDS011;62113;45.624;11.700;2024-02-04T01:30:33;83.63;;;43.95;;
63012;SDS011;62113;45.624;11.700;2024-02-04T01:32:59;79.43;;;41.03;;
63012;SDS011;62113;45.624;11.700;2024-02-04T01:35:25;80.28;;;43.17;;
63012;SDS011;62113;45.624;11.700;2024-02-04T01:37:50;78.68;;;41.70;;
63012;SDS011;62113;45.624;11.700;2024-02-04T01:40:16;79.00;;;43.47;;
63012;SDS011;62113;45.624;11.700;2024-02-04T01:42:42;90.38;;;45.10;;
63012;SDS011;62113;45.624;11.700;2024-02-04T01:45:08;98.47;;;45.22;;
63012;SDS011;62113;45.624;11.700;2024-02-04T01:47:34;78.82;;;42.53;;
63012;SDS011;62113;45.624;11.700;2024-02-04T01:50:00;75.93;;;41.45;;
63012;SDS011;62113;45.624;11.700;2024-02-04T01:52:26;85.00;;;43.43;;
63012;SDS011;62113;45.624;11.700;2024-02-04T01:54:52;82.72;;;41.63;;
63012;SDS011;62113;45.624;11.700;2024-02-04T01:57:18;72.28;;;39.03;;
63012;SDS011;62113;45.624;11.700;2024-02-04T01:59:45;66.47;;;38.28;;
63012;SDS011;62113;45.624;11.700;2024-02-04T02:02:12;71.15;;;39.35;;
63012;SDS011;62113;45.624;11.700;2024-02-04T02:04:38;76.38;;;42.47;;
63012;SDS011;62113;45.624;11.700;2024-02-04T02:07:04;78.82;;;40.40;;
63012;SDS011;62113;45.624;11.700;2024-02-04T02:09:32;81.70;;;41.42;;
63012;SDS011;62113;45.624;11.700;2024-02-04T02:12:03;79.20;;;40.35;;
63012;SDS011;62113;45.624;11.700;2024-02-04T02:14:35;65.75;;;36.50;;
63012;SDS011;62113;45.624;11.700;2024-02-04T02:17:11;82.57;;;42.58;;
63012;SDS011;62113;45.624;11.700;2024-02-04T02:19:55;75.43;;;41.17;;
63012;SDS011;62113;45.624;11.700;2024-02-04T02:22:39;75.75;;;38.35;;
63012;SDS011;62113;45.624;11.700;2024-02-04T02:25:26;71.30;;;39.85;;
63012;SDS011;62113;45.624;11.700;2024-02-04T02:27:52;81.75;;;40.20;;
63012;SDS011;62113;45.624;11.700;2024-02-04T02:30:18;79.47;;;39.60;;
63012;SDS011;62113;45.624;11.700;2024-02-04T02:32:44;83.20;;;40.25;;
63012;SDS011;62113;45.624;11.700;2024-02-04T02:35:16;67.05;;;36.00;;
63012;SDS011;62113;45.624;11.700;2024-02-04T02:42:37;72.65;;;37.70;;
63012;SDS011;62113;45.624;11.700;2024-02-04T02:45:07;73.22;;;37.70;;
63012;SDS011;62113;45.624;11.700;2024-02-04T02:47:34;71.22;;;38.80;;
63012;SDS011;62113;45.624;11.700;2024-02-04T02:50:01;81.60;;;39.38;;
63012;SDS011;62113;45.624;11.700;2024-02-04T02:52:27;67.60;;;35.78;;
63012;SDS011;62113;45.624;11.700;2024-02-04T02:54:52;72.43;;;38.35;;
63012;SDS011;62113;45.624;11.700;2024-02-04T02:57:18;68.32;;;35.92;;
63012;SDS011;62113;45.624;11.700;2024-02-04T02:59:43;73.30;;;38.38;;
63012;SDS011;62113;45.624;11.700;2024-02-04T03:02:09;63.05;;;35.88;;
63012;SDS011;62113;45.624;11.700;2024-02-04T03:04:36;67.60;;;36.58;;
63012;SDS011;62113;45.624;11.700;2024-02-04T03:07:01;67.90;;;35.60;;
63012;SDS011;62113;45.624;11.700;2024-02-04T03:09:27;61.88;;;35.92;;
63012;SDS011;62113;45.624;11.700;2024-02-04T03:11:53;56.28;;;32.03;;
63012;SDS011;62113;45.624;11.700;2024-02-04T03:14:19;70.53;;;36.75;;
63012;SDS011;62113;45.624;11.700;2024-02-04T03:16:45;66.20;;;36.80;;
63012;SDS011;62113;45.624;11.700;2024-02-04T03:19:11;66.60;;;35.53;;
63012;SDS011;62113;45.624;11.700;2024-02-04T03:21:36;74.13;;;35.45;;
63012;SDS011;62113;45.624;11.700;2024-02-04T03:24:02;64.95;;;36.05;;
63012;SDS011;62113;45.624;11.700;2024-02-04T03:26:28;65.88;;;34.53;;
63012;SDS011;62113;45.624;11.700;2024-02-04T03:28:53;61.42;;;34.70;;
63012;SDS011;62113;45.624;11.700;2024-02-04T03:31:19;64.40;;;33.40;;
63012;SDS011;62113;45.624;11.700;2024-02-04T03:33:46;64.60;;;36.00;;
63012;SDS011;62113;45.624;11.700;2024-02-04T03:36:11;65.03;;;34.15;;
63012;SDS011;62113;45.624;11.700;2024-02-04T03:38:39;58.58;;;34.85;;
63012;SDS011;62113;45.624;11.700;2024-02-04T03:41:05;70.82;;;36.13;;
63012;SDS011;62113;45.624;11.700;2024-02-04T03:43:30;64.85;;;33.42;;
63012;SDS011;62113;45.624;11.700;2024-02-04T03:45:56;65.03;;;35.22;;
63012;SDS011;62113;45.624;11.700;2024-02-04T03:48:22;69.20;;;35.88;;
63012;SDS011;62113;45.624;11.700;2024-02-04T03:50:47;66.40;;;34.72;;
63012;SDS011;62113;45.624;11.700;2024-02-04T03:53:13;58.92;;;33.88;;
63012;SDS011;62113;45.624;11.700;2024-02-04T03:55:38;64.50;;;36.15;;
63012;SDS011;62113;45.624;11.700;2024-02-04T03:58:04;64.40;;;34.60;;
63012;SDS011;62113;45.624;11.700;2024-02-04T04:00:30;66.43;;;33.53;;
63012;SDS011;62113;45.624;11.700;2024-02-04T04:02:55;69.82;;;36.10;;
63012;SDS011;62113;45.624;11.700;2024-02-04T04:05:21;61.67;;;33.75;;
63012;SDS011;62113;45.624;11.700;2024-02-04T04:07:47;58.17;;;33.30;;
63012;SDS011;62113;45.624;11.700;2024-02-04T04:10:12;63.42;;;32.50;;
63012;SDS011;62113;45.624;11.700;2024-02-04T04:12:38;62.17;;;35.03;;
63012;SDS011;62113;45.624;11.700;2024-02-04T04:15:04;61.80;;;34.25;;
63012;SDS011;62113;45.624;11.700;2024-02-04T04:17:30;65.93;;;35.50;;
63012;SDS011;62113;45.624;11.700;2024-02-04T04:19:55;66.40;;;33.47;;
63012;SDS011;62113;45.624;11.700;2024-02-04T04:22:21;68.70;;;35.63;;
63012;SDS011;62113;45.624;11.700;2024-02-04T04:24:46;60.78;;;35.08;;
63012;SDS011;62113;45.624;11.700;2024-02-04T04:27:12;65.38;;;36.38;;
63012;SDS011;62113;45.624;11.700;2024-02-04T04:29:38;66.57;;;36.55;;
63012;SDS011;62113;45.624;11.700;2024-02-04T04:32:03;60.03;;;34.85;;
63012;SDS011;62113;45.624;11.700;2024-02-04T04:34:30;63.10;;;34.50;;
63012;SDS011;62113;45.624;11.700;2024-02-04T04:36:55;64.75;;;34.92;;
63012;SDS011;62113;45.624;11.700;2024-02-04T04:39:21;71.65;;;34.63;;
63012;SDS011;62113;45.624;11.700;2024-02-04T04:41:46;57.35;;;33.92;;
63012;SDS011;62113;45.624;11.700;2024-02-04T04:44:12;74.47;;;34.13;;
63012;SDS011;62113;45.624;11.700;2024-02-04T04:46:38;62.80;;;33.45;;
63012;SDS011;62113;45.624;11.700;2024-02-04T04:49:06;70.00;;;35.00;;
63012;SDS011;62113;45.624;11.700;2024-02-04T04:51:32;76.72;;;35.75;;
63012;SDS011;62113;45.624;11.700;2024-02-04T04:53:58;65.10;;;36.55;;
63012;SDS011;62113;45.624;11.700;2024-02-04T04:56:24;67.55;;;35.75;;
63012;SDS011;62113;45.624;11.700;2024-02-04T04:58:49;62.70;;;33.60;;
63012;SDS011;62113;45.624;11.700;2024-02-04T05:01:15;92.60;;;44.05;;
63012;SDS011;62113;45.624;11.700;2024-02-04T05:03:41;70.10;;;37.83;;
63012;SDS011;62113;45.624;11.700;2024-02-04T05:06:07;80.57;;;39.67;;
63012;SDS011;62113;45.624;11.700;2024-02-04T05:08:32;68.80;;;37.25;;
63012;SDS011;62113;45.624;11.700;2024-02-04T05:10:58;66.03;;;35.95;;
63012;SDS011;62113;45.624;11.700;2024-02-04T05:13:24;61.55;;;35.08;;
63012;SDS011;62113;45.624;11.700;2024-02-04T05:15:49;67.95;;;34.38;;
63012;SDS011;62113;45.624;11.700;2024-02-04T05:18:15;64.13;;;34.63;;
63012;SDS011;62113;45.624;11.700;2024-02-04T05:20:40;59.95;;;32.58;;
63012;SDS011;62113;45.624;11.700;2024-02-04T05:23:08;56.42;;;30.83;;
63012;SDS011;62113;45.624;11.700;2024-02-04T05:25:34;61.92;;;32.60;;
63012;SDS011;62113;45.624;11.700;2024-02-04T05:27:59;67.82;;;32.97;;
63012;SDS011;62113;45.624;11.700;2024-02-04T05:30:25;63.20;;;32.70;;
63012;SDS011;62113;45.624;11.700;2024-02-04T05:32:51;60.10;;;32.67;;
63012;SDS011;62113;45.624;11.700;2024-02-04T05:35:16;57.58;;;32.33;;
63012;SDS011;62113;45.624;11.700;2024-02-04T05:37:42;55.78;;;30.95;;
63012;SDS011;62113;45.624;11.700;2024-02-04T05:40:07;62.80;;;32.58;;
63012;SDS011;62113;45.624;11.700;2024-02-04T05:42:33;59.47;;;32.67;;
63012;SDS011;62113;45.624;11.700;2024-02-04T05:45:00;57.03;;;31.75;;
63012;SDS011;62113;45.624;11.700;2024-02-04T05:47:25;58.35;;;32.70;;
63012;SDS011;62113;45.624;11.700;2024-02-04T05:49:51;60.60;;;33.15;;
63012;SDS011;62113;45.624;11.700;2024-02-04T05:52:17;57.88;;;32.28;;
63012;SDS011;62113;45.624;11.700;2024-02-04T05:54:42;59.53;;;33.35;;
63012;SDS011;62113;45.624;11.700;2024-02-04T05:57:08;54.55;;;32.25;;
63012;SDS011;62113;45.624;11.700;2024-02-04T05:59:34;63.33;;;32.88;;
63012;SDS011;62113;45.624;11.700;2024-02-04T06:01:59;60.03;;;33.20;;
63012;SDS011;62113;45.624;11.700;2024-02-04T06:04:25;59.55;;;33.85;;
63012;SDS011;62113;45.624;11.700;2024-02-04T06:06:51;57.67;;;31.63;;
63012;SDS011;62113;45.624;11.700;2024-02-04T06:09:16;65.65;;;34.90;;
63012;SDS011;62113;45.624;11.700;2024-02-04T06:11:45;64.97;;;33.83;;
63012;SDS011;62113;45.624;11.700;2024-02-04T06:14:11;65.38;;;36.55;;
63012;SDS011;62113;45.624;11.700;2024-02-04T06:16:37;57.20;;;33.15;;
63012;SDS011;62113;45.624;11.700;2024-02-04T06:19:03;62.22;;;33.88;;
63012;SDS011;62113;45.624;11.700;2024-02-04T06:21:28;64.05;;;33.83;;
63012;SDS011;62113;45.624;11.700;2024-02-04T06:23:54;72.18;;;32.83;;
63012;SDS011;62113;45.624;11.700;2024-02-04T06:26:19;65.30;;;33.67;;
63012;SDS011;62113;45.624;11.700;2024-02-04T06:28:45;68.82;;;34.08;;
63012;SDS011;62113;45.624;11.700;2024-02-04T06:31:13;60.92;;;34.35;;
63012;SDS011;62113;45.624;11.700;2024-02-04T06:33:39;55.33;;;32.00;;
63012;SDS011;62113;45.624;11.700;2024-02-04T06:36:10;51.47;;;31.40;;
63012;SDS011;62113;45.624;11.700;2024-02-04T06:38:36;62.58;;;32.05;;
63012;SDS011;62113;45.624;11.700;2024-02-04T06:41:02;70.22;;;35.75;;
63012;SDS011;62113;45.624;11.700;2024-02-04T06:43:28;70.65;;;35.63;;
63012;SDS011;62113;45.624;11.700;2024-02-04T06:45:53;61.47;;;36.40;;
63012;SDS011;62113;45.624;11.700;2024-02-04T06:48:19;55.95;;;29.27;;
63012;SDS011;62113;45.624;11.700;2024-02-04T06:50:45;53.42;;;29.25;;
63012;SDS011;62113;45.624;11.700;2024-02-04T06:53:12;60.17;;;29.70;;
63012;SDS011;62113;45.624;11.700;2024-02-04T06:55:38;60.45;;;29.38;;
63012;SDS011;62113;45.624;11.700;2024-02-04T06:58:04;52.72;;;30.35;;
63012;SDS011;62113;45.624;11.700;2024-02-04T07:00:30;56.92;;;29.23;;
63012;SDS011;62113;45.624;11.700;2024-02-04T07:02:55;58.38;;;29.90;;
63012;SDS011;62113;45.624;11.700;2024-02-04T07:05:21;73.75;;;35.05;;
63012;SDS011;62113;45.624;11.700;2024-02-04T07:07:47;85.80;;;40.50;;
63012;SDS011;62113;45.624;11.700;2024-02-04T07:10:14;73.40;;;35.20;;
63012;SDS011;62113;45.624;11.700;2024-02-04T07:12:40;75.88;;;36.15;;
63012;SDS011;62113;45.624;11.700;2024-02-04T07:15:06;60.28;;;33.00;;
63012;SDS011;62113;45.624;11.700;2024-02-04T07:17:33;80.13;;;36.15;;
63012;SDS011;62113;45.624;11.700;2024-02-04T07:19:59;76.28;;;35.80;;
63012;SDS011;62113;45.624;11.700;2024-02-04T07:22:26;86.55;;;38.13;;
63012;SDS011;62113;45.624;11.700;2024-02-04T07:24:51;73.95;;;37.80;;
63012;SDS011;62113;45.624;11.700;2024-02-04T07:27:17;91.18;;;36.67;;
63012;SDS011;62113;45.624;11.700;2024-02-04T07:29:42;89.43;;;37.03;;
63012;SDS011;62113;45.624;11.700;2024-02-04T07:32:08;98.95;;;36.13;;
63012;SDS011;62113;45.624;11.700;2024-02-04T07:34:34;89.57;;;36.85;;
63012;SDS011;62113;45.624;11.700;2024-02-04T07:36:59;72.40;;;35.60;;
63012;SDS011;62113;45.624;11.700;2024-02-04T07:39:25;72.40;;;35.97;;
63012;SDS011;62113;45.624;11.700;2024-02-04T07:41:51;58.95;;;33.78;;
63012;SDS011;62113;45.624;11.700;2024-02-04T07:44:18;66.90;;;33.47;;
63012;SDS011;62113;45.624;11.700;2024-02-04T07:46:44;66.90;;;33.63;;
63012;SDS011;62113;45.624;11.700;2024-02-04T07:49:10;62.20;;;33.97;;
63012;SDS011;62113;45.624;11.700;2024-02-04T07:51:35;71.65;;;33.03;;
63012;SDS011;62113;45.624;11.700;2024-02-04T07:54:02;84.53;;;34.70;;
63012;SDS011;62113;45.624;11.700;2024-02-04T07:56:29;80.50;;;35.28;;
63012;SDS011;62113;45.624;11.700;2024-02-04T07:58:54;60.13;;;32.78;;
63012;SDS011;62113;45.624;11.700;2024-02-04T08:01:20;67.10;;;33.65;;
63012;SDS011;62113;45.624;11.700;2024-02-04T08:03:45;64.50;;;34.15;;
63012;SDS011;62113;45.624;11.700;2024-02-04T08:06:12;87.35;;;34.63;;
63012;SDS011;62113;45.624;11.700;2024-02-04T08:08:38;66.82;;;33.72;;
63012;SDS011;62113;45.624;11.700;2024-02-04T08:11:03;65.20;;;33.35;;
63012;SDS011;62113;45.624;11.700;2024-02-04T08:13:29;65.70;;;33.95;;
63012;SDS011;62113;45.624;11.700;2024-02-04T08:15:55;56.55;;;33.17;;
63012;SDS011;62113;45.624;11.700;2024-02-04T08:18:20;64.85;;;33.67;;
63012;SDS011;62113;45.624;11.700;2024-02-04T08:20:46;60.65;;;32.72;;
63012;SDS011;62113;45.624;11.700;2024-02-04T08:23:11;64.95;;;33.35;;
63012;SDS011;62113;45.624;11.700;2024-02-04T08:25:37;63.13;;;32.65;;
63012;SDS011;62113;45.624;11.700;2024-02-04T08:28:03;67.68;;;34.33;;
63012;SDS011;62113;45.624;11.700;2024-02-04T08:30:29;70.77;;;36.67;;
63012;SDS011;62113;45.624;11.700;2024-02-04T08:32:54;58.20;;;33.42;;
63012;SDS011;62113;45.624;11.700;2024-02-04T08:35:20;161.68;;;81.70;;
63012;SDS011;62113;45.624;11.700;2024-02-04T08:37:46;79.28;;;37.00;;
63012;SDS011;62113;45.624;11.700;2024-02-04T08:40:11;56.13;;;34.15;;
63012;SDS011;62113;45.624;11.700;2024-02-04T08:42:38;61.83;;;35.75;;
63012;SDS011;62113;45.624;11.700;2024-02-04T08:45:04;56.67;;;33.33;;
63012;SDS011;62113;45.624;11.700;2024-02-04T08:47:30;57.67;;;34.40;;
63012;SDS011;62113;45.624;11.700;2024-02-04T08:49:55;56.35;;;33.55;;
63012;SDS011;62113;45.624;11.700;2024-02-04T08:52:22;63.60;;;32.85;;
63012;SDS011;62113;45.624;11.700;2024-02-04T08:54:49;57.40;;;34.20;;
63012;SDS011;62113;45.624;11.700;2024-02-04T08:57:15;56.90;;;33.25;;
63012;SDS011;62113;45.624;11.700;2024-02-04T08:59:41;57.88;;;34.45;;
63012;SDS011;62113;45.624;11.700;2024-02-04T09:02:07;65.90;;;37.67;;
63012;SDS011;62113;45.624;11.700;2024-02-04T09:04:33;69.15;;;37.95;;
63012;SDS011;62113;45.624;11.700;2024-02-04T09:07:05;65.07;;;36.50;;
63012;SDS011;62113;45.624;11.700;2024-02-04T09:09:31;65.88;;;35.97;;
63012;SDS011;62113;45.624;11.700;2024-02-04T09:11:57;58.17;;;34.45;;
63012;SDS011;62113;45.624;11.700;2024-02-04T09:14:22;59.38;;;33.13;;
63012;SDS011;62113;45.624;11.700;2024-02-04T09:16:48;58.22;;;33.78;;
63012;SDS011;62113;45.624;11.700;2024-02-04T09:19:14;56.30;;;34.37;;
63012;SDS011;62113;45.624;11.700;2024-02-04T09:21:39;74.82;;;35.03;;
63012;SDS011;62113;45.624;11.700;2024-02-04T09:24:05;69.82;;;37.30;;
63012;SDS011;62113;45.624;11.700;2024-02-04T09:26:31;63.73;;;34.77;;
63012;SDS011;62113;45.624;11.700;2024-02-04T09:28:56;61.72;;;35.63;;
63012;SDS011;62113;45.624;11.700;2024-02-04T09:31:22;56.47;;;34.37;;
63012;SDS011;62113;45.624;11.700;2024-02-04T09:33:47;60.43;;;35.17;;
63012;SDS011;62113;45.624;11.700;2024-02-04T09:36:13;55.17;;;34.30;;
63012;SDS011;62113;45.624;11.700;2024-02-04T09:38:39;60.20;;;35.28;;
63012;SDS011;62113;45.624;11.700;2024-02-04T09:41:05;64.23;;;35.97;;
63012;SDS011;62113;45.624;11.700;2024-02-04T09:43:34;57.30;;;34.07;;
63012;SDS011;62113;45.624;11.700;2024-02-04T09:46:00;50.90;;;31.30;;
63012;SDS011;62113;45.624;11.700;2024-02-04T09:48:26;53.83;;;32.27;;
63012;SDS011;62113;45.624;11.700;2024-02-04T09:50:56;47.22;;;29.73;;
63012;SDS011;62113;45.624;11.700;2024-02-04T09:53:28;46.77;;;31.13;;
63012;SDS011;62113;45.624;11.700;2024-02-04T09:55:59;58.15;;;33.08;;
63012;SDS011;62113;45.624;11.700;2024-02-04T09:58:27;60.97;;;37.97;;
63012;SDS011;62113;45.624;11.700;2024-02-04T10:00:53;67.23;;;39.47;;
63012;SDS011;62113;45.624;11.700;2024-02-04T10:03:19;62.78;;;39.25;;
63012;SDS011;62113;45.624;11.700;2024-02-04T10:05:46;75.80;;;40.17;;
63012;SDS011;62113;45.624;11.700;2024-02-04T10:08:12;62.28;;;38.22;;
63012;SDS011;62113;45.624;11.700;2024-02-04T10:10:39;68.93;;;38.50;;
63012;SDS011;62113;45.624;11.700;2024-02-04T10:13:06;62.17;;;36.03;;
63012;SDS011;62113;45.624;11.700;2024-02-04T10:15:33;51.75;;;34.63;;
63012;SDS011;62113;45.624;11.700;2024-02-04T10:17:58;59.80;;;35.63;;
63012;SDS011;62113;45.624;11.700;2024-02-04T10:20:24;57.23;;;36.53;;
63012;SDS011;62113;45.624;11.700;2024-02-04T10:22:50;63.37;;;36.40;;
63012;SDS011;62113;45.624;11.700;2024-02-04T10:25:15;51.57;;;34.50;;
63012;SDS011;62113;45.624;11.700;2024-02-04T10:27:41;49.07;;;32.17;;
63012;SDS011;62113;45.624;11.700;2024-02-04T10:30:07;54.00;;;35.97;;
63012;SDS011;62113;45.624;11.700;2024-02-04T10:32:33;56.97;;;33.42;;
63012;SDS011;62113;45.624;11.700;2024-02-04T10:34:59;63.17;;;35.75;;
63012;SDS011;62113;45.624;11.700;2024-02-04T10:39:52;67.10;;;38.47;;
63012;SDS011;62113;45.624;11.700;2024-02-04T10:42:17;57.33;;;35.90;;
63012;SDS011;62113;45.624;11.700;2024-02-04T10:44:49;57.45;;;34.50;;
63012;SDS011;62113;45.624;11.700;2024-02-04T10:47:17;56.60;;;36.10;;
63012;SDS011;62113;45.624;11.700;2024-02-04T10:49:51;64.55;;;39.00;;
63012;SDS011;62113;45.624;11.700;2024-02-04T10:52:20;65.68;;;41.58;;
63012;SDS011;62113;45.624;11.700;2024-02-04T10:54:48;72.15;;;42.25;;
63012;SDS011;62113;45.624;11.700;2024-02-04T10:57:17;66.35;;;41.83;;
63012;SDS011;62113;45.624;11.700;2024-02-04T10:59:48;68.00;;;41.70;;
63012;SDS011;62113;45.624;11.700;2024-02-04T11:02:16;69.30;;;42.40;;
63012;SDS011;62113;45.624;11.700;2024-02-04T11:04:43;67.10;;;39.60;;
63012;SDS011;62113;45.624;11.700;2024-02-04T11:07:10;61.72;;;36.00;;
63012;SDS011;62113;45.624;11.700;2024-02-04T11:09:39;59.75;;;35.65;;
63012;SDS011;62113;45.624;11.700;2024-02-04T11:14:34;57.65;;;35.42;;
63012;SDS011;62113;45.624;11.700;2024-02-04T11:22:59;56.22;;;34.83;;
63012;SDS011;62113;45.624;11.700;2024-02-04T11:25:45;64.35;;;39.20;;
63012;SDS011;62113;45.624;11.700;2024-02-04T11:28:16;61.97;;;36.78;;
63012;SDS011;62113;45.624;11.700;2024-02-04T11:30:44;66.75;;;38.03;;
63012;SDS011;62113;45.624;11.700;2024-02-04T11:33:11;68.65;;;39.15;;
63012;SDS011;62113;45.624;11.700;2024-02-04T11:35:38;69.07;;;40.47;;
63012;SDS011;62113;45.624;11.700;2024-02-04T11:38:04;70.13;;;40.93;;
63012;SDS011;62113;45.624;11.700;2024-02-04T11:40:37;67.47;;;39.45;;
63012;SDS011;62113;45.624;11.700;2024-02-04T11:45:32;87.70;;;48.10;;
63012;SDS011;62113;45.624;11.700;2024-02-04T11:48:01;94.00;;;54.37;;
63012;SDS011;62113;45.624;11.700;2024-02-04T11:50:28;68.63;;;40.72;;
63012;SDS011;62113;45.624;11.700;2024-02-04T11:53:06;107.88;;;63.78;;
63012;SDS011;62113;45.624;11.700;2024-02-04T11:55:39;92.53;;;52.42;;
63012;SDS011;62113;45.624;11.700;2024-02-04T11:58:05;75.00;;;43.85;;
63012;SDS011;62113;45.624;11.700;2024-02-04T12:00:34;70.22;;;40.50;;
63012;SDS011;62113;45.624;11.700;2024-02-04T12:03:01;67.40;;;39.97;;
63012;SDS011;62113;45.624;11.700;2024-02-04T12:05:31;71.32;;;39.97;;
63012;SDS011;62113;45.624;11.700;2024-02-04T12:08:03;68.22;;;39.55;;
63012;SDS011;62113;45.624;11.700;2024-02-04T12:10:31;68.40;;;39.55;;
63012;SDS011;62113;45.624;11.700;2024-02-04T12:13:05;72.10;;;38.30;;
63012;SDS011;62113;45.624;11.700;2024-02-04T12:15:34;66.05;;;39.05;;
63012;SDS011;62113;45.624;11.700;2024-02-04T12:18:07;67.00;;;41.53;;
63012;SDS011;62113;45.624;11.700;2024-02-04T12:20:36;97.07;;;56.90;;
63012;SDS011;62113;45.624;11.700;2024-02-04T12:23:03;72.63;;;42.97;;
63012;SDS011;62113;45.624;11.700;2024-02-04T12:25:29;69.30;;;41.47;;
63012;SDS011;62113;45.624;11.700;2024-02-04T12:27:59;80.38;;;43.15;;
63012;SDS011;62113;45.624;11.700;2024-02-04T12:30:27;65.47;;;40.30;;
63012;SDS011;62113;45.624;11.700;2024-02-04T12:35:23;66.38;;;40.38;;
63012;SDS011;62113;45.624;11.700;2024-02-04T12:37:56;74.60;;;40.67;;
63012;SDS011;62113;45.624;11.700;2024-02-04T12:42:58;69.20;;;40.30;;
63012;SDS011;62113;45.624;11.700;2024-02-04T12:45:26;62.33;;;39.63;;
63012;SDS011;62113;45.624;11.700;2024-02-04T12:47:53;66.75;;;41.47;;
63012;SDS011;62113;45.624;11.700;2024-02-04T12:50:22;73.70;;;41.88;;
63012;SDS011;62113;45.624;11.700;2024-02-04T12:53:05;75.07;;;42.55;;
63012;SDS011;62113;45.624;11.700;2024-02-04T12:55:36;70.00;;;42.20;;
63012;SDS011;62113;45.624;11.700;2024-02-04T12:58:09;75.32;;;43.47;;
63012;SDS011;62113;45.624;11.700;2024-02-04T13:00:42;70.97;;;41.67;;
63012;SDS011;62113;45.624;11.700;2024-02-04T13:03:08;69.67;;;40.43;;
63012;SDS011;62113;45.624;11.700;2024-02-04T13:05:34;76.05;;;42.15;;
63012;SDS011;62113;45.624;11.700;2024-02-04T13:08:00;72.72;;;42.45;;
63012;SDS011;62113;45.624;11.700;2024-02-04T13:10:29;80.28;;;44.03;;
63012;SDS011;62113;45.624;11.700;2024-02-04T13:13:06;78.13;;;44.70;;
63012;SDS011;62113;45.624;11.700;2024-02-04T13:18:04;80.78;;;47.03;;
63012;SDS011;62113;45.624;11.700;2024-02-04T13:20:30;81.80;;;46.07;;
63012;SDS011;62113;45.624;11.700;2024-02-04T13:22:55;79.43;;;44.67;;
63012;SDS011;62113;45.624;11.700;2024-02-04T13:25:22;80.57;;;46.60;;
63012;SDS011;62113;45.624;11.700;2024-02-04T13:27:48;73.50;;;44.10;;
63012;SDS011;62113;45.624;11.700;2024-02-04T13:30:15;88.22;;;47.20;;
63012;SDS011;62113;45.624;11.700;2024-02-04T13:32:41;76.35;;;41.10;;
63012;SDS011;62113;45.624;11.700;2024-02-04T13:35:08;76.95;;;45.67;;
63012;SDS011;62113;45.624;11.700;2024-02-04T13:37:41;73.32;;;44.00;;
63012;SDS011;62113;45.624;11.700;2024-02-04T13:40:15;76.57;;;43.42;;
63012;SDS011;62113;45.624;11.700;2024-02-04T13:42:45;81.82;;;46.00;;
63012;SDS011;62113;45.624;11.700;2024-02-04T13:45:11;76.57;;;44.30;;
63012;SDS011;62113;45.624;11.700;2024-02-04T13:47:40;82.05;;;47.13;;
63012;SDS011;62113;45.624;11.700;2024-02-04T13:50:06;78.32;;;46.42;;
63012;SDS011;62113;45.624;11.700;2024-02-04T13:52:33;72.70;;;44.17;;
63012;SDS011;62113;45.624;11.700;2024-02-04T13:54:59;82.75;;;47.60;;
63012;SDS011;62113;45.624;11.700;2024-02-04T13:57:25;78.57;;;47.43;;
63012;SDS011;62113;45.624;11.700;2024-02-04T13:59:51;85.50;;;47.00;;
63012;SDS011;62113;45.624;11.700;2024-02-04T14:02:17;83.15;;;47.92;;
63012;SDS011;62113;45.624;11.700;2024-02-04T14:04:43;81.20;;;47.43;;
63012;SDS011;62113;45.624;11.700;2024-02-04T14:07:09;82.90;;;47.10;;
63012;SDS011;62113;45.624;11.700;2024-02-04T14:09:34;93.80;;;48.13;;
63012;SDS011;62113;45.624;11.700;2024-02-04T14:12:01;85.57;;;47.72;;
63012;SDS011;62113;45.624;11.700;2024-02-04T14:14:28;81.97;;;45.55;;
63012;SDS011;62113;45.624;11.700;2024-02-04T14:16:54;86.65;;;48.63;;
63012;SDS011;62113;45.624;11.700;2024-02-04T14:19:20;86.33;;;46.93;;
63012;SDS011;62113;45.624;11.700;2024-02-04T14:21:46;92.53;;;48.07;;
63012;SDS011;62113;45.624;11.700;2024-02-04T14:24:11;79.93;;;45.53;;
63012;SDS011;62113;45.624;11.700;2024-02-04T14:26:38;93.63;;;48.72;;
63012;SDS011;62113;45.624;11.700;2024-02-04T14:29:03;81.17;;;46.80;;
63012;SDS011;62113;45.624;11.700;2024-02-04T14:31:29;82.10;;;48.20;;